Terminal Aerodrome Forecast
Issued by NWS

Current Version | Previous Version | Text Only | Print | Product List | Glossary On
Versions: 1 2 3 4 5 6 7 8 9 10 11 12 13 14 15 16
000
FTUS43 KABR 210158 AAB
TAFMBG
TAF AMD
KMBG 210158Z 2102/2124 34005KT 2SM BR BKN002 OVC011
     FM210500 VRB06KT 3/4SM BR OVC003
     FM210600 VRB06KT 1/4SM FZFG OVC003
     FM211600 VRB03KT 1SM BR OVC003
     FM211900 30005KT 4SM BR OVC008
     FM212100 30007KT P6SM OVC008
     FM212200 31007KT P6SM OVC010=

USA.gov is the U.S. government's official web portal to all federal, state and local government web resources and services.